GLD1134 SBSI-SWJN
Flight info
| Callsign | GLD1134 |
|---|---|
| Flight time | 1h 4m |
| Altitude | 8500 |
| Route | 1138S05604W 1130S05640W 1132S05701W 1133S05721W 1129S05751W 1132S05815W 1132S05822W |
| Aircraft | BE58/L-S/C |
Departure
| Time | 2026-04-26 17:45 |
|---|---|
| Airport | Presidente João Batista Figueiredo Airport (SBSI) |
Arrival
| Time | 2026-04-26 18:50 |
|---|---|
| Airport | Juína Airport (SWJN) |
| Time | Latitude | Longitude | Altitude | Speed | Heading |
|---|---|---|---|---|---|
| 2026-04-26 17:35 | -11.87951 | -55.58297 | 1241 ft | 0 kts | 15° |
| 2026-04-26 17:39 | -11.87950 | -55.58296 | 1241 ft | 2 kts | 15° |
| 2026-04-26 17:39 | -11.87917 | -55.58312 | 1241 ft | 10 kts | 357° |
| 2026-04-26 17:40 | -11.87861 | -55.58305 | 1241 ft | 8 kts | 324° |
| 2026-04-26 17:40 | -11.87850 | -55.58320 | 1241 ft | 7 kts | 291° |
| 2026-04-26 17:40 | -11.87838 | -55.58364 | 1242 ft | 0 kts | 286° |
| 2026-04-26 17:44 | -11.87832 | -55.58386 | 1237 ft | 10 kts | 288° |
| 2026-04-26 17:44 | -11.87836 | -55.58451 | 1232 ft | 5 kts | 194° |
| 2026-04-26 17:45 | -11.87875 | -55.58461 | 1232 ft | 36 kts | 193° |
| 2026-04-26 17:45 | -11.88437 | -55.58612 | 1255 ft | 120 kts | 195° |
| 2026-04-26 17:45 | -11.89364 | -55.58864 | 1499 ft | 148 kts | 191° |
| 2026-04-26 17:45 | -11.90368 | -55.58681 | 1946 ft | 150 kts | 149° |
| 2026-04-26 17:46 | -11.90952 | -55.57819 | 2340 ft | 156 kts | 100° |
| 2026-04-26 17:46 | -11.90700 | -55.56720 | 2531 ft | 169 kts | 54° |
| 2026-04-26 17:46 | -11.89709 | -55.56061 | 2629 ft | 178 kts | 12° |
| 2026-04-26 17:46 | -11.88489 | -55.56243 | 2745 ft | 183 kts | 331° |
| 2026-04-26 17:47 | -11.87586 | -55.57164 | 2867 ft | 186 kts | 306° |
| 2026-04-26 17:47 | -11.87093 | -55.57881 | 2952 ft | 187 kts | 304° |
| 2026-04-26 17:47 | -11.86127 | -55.59300 | 3128 ft | 188 kts | 304° |
| 2026-04-26 17:47 | -11.85386 | -55.60396 | 3278 ft | 187 kts | 304° |
| 2026-04-26 17:48 | -11.84647 | -55.61489 | 3432 ft | 186 kts | 304° |
| 2026-04-26 17:48 | -11.84359 | -55.61913 | 3492 ft | 187 kts | 305° |
| 2026-04-26 17:48 | -11.83733 | -55.62837 | 3618 ft | 187 kts | 304° |
| 2026-04-26 17:49 | -11.82990 | -55.63950 | 3771 ft | 187 kts | 304° |
| 2026-04-26 17:49 | -11.82263 | -55.65038 | 3921 ft | 187 kts | 304° |
| 2026-04-26 17:49 | -11.81759 | -55.66262 | 4063 ft | 187 kts | 278° |
| 2026-04-26 17:49 | -11.81639 | -55.67573 | 4213 ft | 185 kts | 274° |
| 2026-04-26 17:50 | -11.81524 | -55.68868 | 4362 ft | 184 kts | 277° |
| 2026-04-26 17:50 | -11.81340 | -55.70164 | 4511 ft | 183 kts | 279° |
| 2026-04-26 17:50 | -11.81132 | -55.71442 | 4659 ft | 182 kts | 279° |
| 2026-04-26 17:50 | -11.80926 | -55.72717 | 4809 ft | 182 kts | 279° |
| 2026-04-26 17:51 | -11.80723 | -55.73988 | 4958 ft | 181 kts | 279° |
| 2026-04-26 17:51 | -11.80521 | -55.75256 | 5106 ft | 180 kts | 279° |
| 2026-04-26 17:51 | -11.80317 | -55.76519 | 5255 ft | 180 kts | 279° |
| 2026-04-26 17:51 | -11.80115 | -55.77780 | 5405 ft | 180 kts | 279° |
| 2026-04-26 17:52 | -11.79913 | -55.79044 | 5552 ft | 180 kts | 279° |
| 2026-04-26 17:52 | -11.79711 | -55.80306 | 5704 ft | 180 kts | 279° |
| 2026-04-26 17:52 | -11.79508 | -55.81569 | 5862 ft | 181 kts | 279° |
| 2026-04-26 17:52 | -11.79306 | -55.82832 | 6002 ft | 180 kts | 279° |
| 2026-04-26 17:53 | -11.79104 | -55.84092 | 6151 ft | 179 kts | 279° |
| 2026-04-26 17:53 | -11.78903 | -55.85346 | 6300 ft | 179 kts | 279° |
| 2026-04-26 17:53 | -11.78702 | -55.86597 | 6448 ft | 178 kts | 279° |
| 2026-04-26 17:54 | -11.78301 | -55.89091 | 6748 ft | 178 kts | 279° |
| 2026-04-26 17:54 | -11.78100 | -55.90344 | 6899 ft | 179 kts | 279° |
| 2026-04-26 17:54 | -11.77899 | -55.91600 | 7048 ft | 179 kts | 279° |
| 2026-04-26 17:54 | -11.77699 | -55.92839 | 7196 ft | 179 kts | 279° |
| 2026-04-26 17:55 | -11.77498 | -55.94093 | 7346 ft | 179 kts | 279° |
| 2026-04-26 17:55 | -11.77294 | -55.95362 | 7495 ft | 178 kts | 279° |
| 2026-04-26 17:55 | -11.77093 | -55.96610 | 7644 ft | 178 kts | 279° |
| 2026-04-26 17:55 | -11.76893 | -55.97854 | 7794 ft | 178 kts | 279° |
| 2026-04-26 17:56 | -11.76692 | -55.99100 | 7944 ft | 178 kts | 279° |
| 2026-04-26 17:56 | -11.76292 | -56.01587 | 8242 ft | 178 kts | 279° |
| 2026-04-26 17:57 | -11.75890 | -56.04078 | 8513 ft | 180 kts | 279° |
| 2026-04-26 17:57 | -11.75683 | -56.05361 | 8516 ft | 186 kts | 279° |
| 2026-04-26 17:57 | -11.75470 | -56.06679 | 8523 ft | 190 kts | 279° |
| 2026-04-26 17:57 | -11.75254 | -56.08016 | 8526 ft | 192 kts | 279° |
| 2026-04-26 17:58 | -11.74615 | -56.11990 | 8388 ft | 194 kts | 282° |
| 2026-04-26 17:59 | -11.74166 | -56.14756 | 8411 ft | 200 kts | 281° |
| 2026-04-26 17:59 | -11.73940 | -56.16159 | 8410 ft | 201 kts | 281° |
| 2026-04-26 17:59 | -11.73710 | -56.17579 | 8414 ft | 204 kts | 281° |
| 2026-04-26 17:59 | -11.73480 | -56.19010 | 8417 ft | 205 kts | 281° |
| 2026-04-26 18:00 | -11.73245 | -56.20457 | 8416 ft | 207 kts | 281° |
| 2026-04-26 18:00 | -11.73013 | -56.21890 | 8419 ft | 207 kts | 281° |
| 2026-04-26 18:00 | -11.72779 | -56.23341 | 8419 ft | 208 kts | 281° |
| 2026-04-26 18:00 | -11.72540 | -56.24812 | 8424 ft | 208 kts | 281° |
| 2026-04-26 18:01 | -11.72303 | -56.26274 | 8419 ft | 209 kts | 281° |
| 2026-04-26 18:01 | -11.72067 | -56.27732 | 8420 ft | 208 kts | 281° |
| 2026-04-26 18:01 | -11.71832 | -56.29181 | 8420 ft | 207 kts | 281° |
| 2026-04-26 18:01 | -11.71597 | -56.30632 | 8418 ft | 207 kts | 281° |
| 2026-04-26 18:02 | -11.71363 | -56.32079 | 8416 ft | 207 kts | 281° |
| 2026-04-26 18:02 | -11.71287 | -56.32547 | 8415 ft | 206 kts | 281° |
| 2026-04-26 18:02 | -11.70894 | -56.34967 | 8415 ft | 207 kts | 281° |
| 2026-04-26 18:02 | -11.70658 | -56.36417 | 8417 ft | 207 kts | 281° |
| 2026-04-26 18:03 | -11.70426 | -56.37849 | 8417 ft | 207 kts | 281° |
| 2026-04-26 18:03 | -11.70191 | -56.39294 | 8417 ft | 208 kts | 281° |
| 2026-04-26 18:03 | -11.69954 | -56.40749 | 8417 ft | 207 kts | 281° |
| 2026-04-26 18:03 | -11.69718 | -56.42203 | 8415 ft | 208 kts | 281° |
| 2026-04-26 18:04 | -11.69482 | -56.43657 | 8415 ft | 208 kts | 281° |
| 2026-04-26 18:04 | -11.69246 | -56.45109 | 8414 ft | 207 kts | 281° |
| 2026-04-26 18:04 | -11.69009 | -56.46562 | 8415 ft | 207 kts | 281° |
| 2026-04-26 18:05 | -11.68536 | -56.49466 | 8393 ft | 209 kts | 281° |
| 2026-04-26 18:05 | -11.68296 | -56.50938 | 8273 ft | 211 kts | 281° |
| 2026-04-26 18:05 | -11.68055 | -56.52417 | 8155 ft | 211 kts | 281° |
| 2026-04-26 18:05 | -11.67815 | -56.53892 | 8034 ft | 210 kts | 281° |
| 2026-04-26 18:06 | -11.67576 | -56.55359 | 7917 ft | 210 kts | 281° |
| 2026-04-26 18:06 | -11.67337 | -56.56825 | 7797 ft | 210 kts | 281° |
| 2026-04-26 18:06 | -11.67097 | -56.58295 | 7678 ft | 210 kts | 281° |
| 2026-04-26 18:06 | -11.66858 | -56.59761 | 7560 ft | 209 kts | 281° |
| 2026-04-26 18:07 | -11.66619 | -56.61227 | 7436 ft | 209 kts | 281° |
| 2026-04-26 18:07 | -11.66381 | -56.62686 | 7321 ft | 209 kts | 281° |
| 2026-04-26 18:07 | -11.66141 | -56.64149 | 7203 ft | 209 kts | 281° |
| 2026-04-26 18:07 | -11.65984 | -56.65113 | 7127 ft | 208 kts | 281° |
| 2026-04-26 18:08 | -11.65665 | -56.67061 | 6973 ft | 209 kts | 281° |
| 2026-04-26 18:08 | -11.65425 | -56.68524 | 6855 ft | 210 kts | 281° |
| 2026-04-26 18:08 | -11.65185 | -56.69995 | 6737 ft | 210 kts | 281° |
| 2026-04-26 18:08 | -11.64950 | -56.71436 | 6624 ft | 208 kts | 281° |
| 2026-04-26 18:09 | -11.64713 | -56.72885 | 6506 ft | 206 kts | 281° |
| 2026-04-26 18:09 | -11.64476 | -56.74332 | 6388 ft | 207 kts | 281° |
| 2026-04-26 18:09 | -11.64241 | -56.75772 | 6271 ft | 205 kts | 281° |
| 2026-04-26 18:09 | -11.64006 | -56.77201 | 6147 ft | 203 kts | 281° |
| 2026-04-26 18:10 | -11.63774 | -56.78619 | 6024 ft | 202 kts | 281° |
| 2026-04-26 18:10 | -11.63542 | -56.80031 | 5901 ft | 202 kts | 281° |
| 2026-04-26 18:10 | -11.63311 | -56.81439 | 5778 ft | 201 kts | 281° |
| 2026-04-26 18:10 | -11.63081 | -56.82844 | 5656 ft | 200 kts | 281° |
| 2026-04-26 18:11 | -11.62928 | -56.83775 | 5581 ft | 201 kts | 281° |
| 2026-04-26 18:11 | -11.62696 | -56.85181 | 5461 ft | 201 kts | 282° |
| 2026-04-26 18:11 | -11.62466 | -56.86587 | 5338 ft | 201 kts | 281° |
| 2026-04-26 18:11 | -11.62236 | -56.87989 | 5220 ft | 199 kts | 281° |
| 2026-04-26 18:12 | -11.62008 | -56.89376 | 5095 ft | 198 kts | 282° |
| 2026-04-26 18:12 | -11.61781 | -56.90765 | 4974 ft | 198 kts | 281° |
| 2026-04-26 18:12 | -11.61554 | -56.92146 | 4857 ft | 197 kts | 282° |
| 2026-04-26 18:12 | -11.61327 | -56.93517 | 4742 ft | 196 kts | 281° |
| 2026-04-26 18:13 | -11.61102 | -56.94886 | 4622 ft | 196 kts | 281° |
| 2026-04-26 18:13 | -11.60876 | -56.96255 | 4500 ft | 195 kts | 281° |
| 2026-04-26 18:13 | -11.60649 | -56.97650 | 4374 ft | 197 kts | 281° |
| 2026-04-26 18:13 | -11.60493 | -56.98581 | 4295 ft | 196 kts | 281° |
| 2026-04-26 18:14 | -11.60196 | -57.00395 | 4135 ft | 197 kts | 282° |
| 2026-04-26 18:14 | -11.59967 | -57.01780 | 4015 ft | 194 kts | 281° |
| 2026-04-26 18:14 | -11.59743 | -57.03139 | 3904 ft | 195 kts | 281° |
| 2026-04-26 18:14 | -11.59515 | -57.04518 | 3789 ft | 199 kts | 280° |
| 2026-04-26 18:15 | -11.59286 | -57.05924 | 3655 ft | 196 kts | 281° |
| 2026-04-26 18:15 | -11.59065 | -57.07260 | 3534 ft | 192 kts | 281° |
| 2026-04-26 18:15 | -11.58841 | -57.08614 | 3425 ft | 195 kts | 281° |
| 2026-04-26 18:15 | -11.58615 | -57.09982 | 3288 ft | 191 kts | 282° |
| 2026-04-26 18:16 | -11.58393 | -57.11301 | 3173 ft | 188 kts | 281° |
| 2026-04-26 18:16 | -11.57957 | -57.13972 | 2940 ft | 194 kts | 281° |
| 2026-04-26 18:16 | -11.57735 | -57.15324 | 2812 ft | 192 kts | 282° |
| 2026-04-26 18:17 | -11.57515 | -57.16648 | 2708 ft | 190 kts | 280° |
| 2026-04-26 18:17 | -11.57296 | -57.17975 | 2577 ft | 188 kts | 281° |
| 2026-04-26 18:17 | -11.57074 | -57.19290 | 2468 ft | 189 kts | 281° |
| 2026-04-26 18:17 | -11.56861 | -57.20594 | 2338 ft | 184 kts | 281° |
| 2026-04-26 18:18 | -11.56648 | -57.21905 | 2207 ft | 184 kts | 281° |
| 2026-04-26 18:18 | -11.56434 | -57.23197 | 2090 ft | 188 kts | 281° |
| 2026-04-26 18:18 | -11.56217 | -57.24489 | 1973 ft | 185 kts | 281° |
| 2026-04-26 18:18 | -11.56002 | -57.25781 | 1876 ft | 186 kts | 280° |
| 2026-04-26 18:19 | -11.55787 | -57.27078 | 1812 ft | 182 kts | 279° |
| 2026-04-26 18:19 | -11.55578 | -57.28343 | 1815 ft | 176 kts | 280° |
| 2026-04-26 18:19 | -11.55373 | -57.29564 | 1811 ft | 174 kts | 282° |
| 2026-04-26 18:19 | -11.55177 | -57.30781 | 1797 ft | 173 kts | 280° |
| 2026-04-26 18:20 | -11.54976 | -57.31986 | 1808 ft | 175 kts | 281° |
| 2026-04-26 18:20 | -11.54772 | -57.33206 | 1807 ft | 175 kts | 281° |
| 2026-04-26 18:20 | -11.54552 | -57.34436 | 1814 ft | 176 kts | 285° |
| 2026-04-26 18:20 | -11.54356 | -57.35234 | 1804 ft | 175 kts | 286° |
| 2026-04-26 18:21 | -11.53924 | -57.36818 | 1811 ft | 175 kts | 289° |
| 2026-04-26 18:21 | -11.53591 | -57.38003 | 1828 ft | 173 kts | 281° |
| 2026-04-26 18:21 | -11.53553 | -57.39228 | 1700 ft | 174 kts | 266° |
| 2026-04-26 18:21 | -11.53887 | -57.40406 | 1528 ft | 173 kts | 236° |
| 2026-04-26 18:22 | -11.54831 | -57.41015 | 1493 ft | 164 kts | 175° |
| 2026-04-26 18:22 | -11.55695 | -57.40391 | 1283 ft | 156 kts | 109° |
| 2026-04-26 18:22 | -11.55716 | -57.39347 | 1240 ft | 153 kts | 55° |
| 2026-04-26 18:22 | -11.54855 | -57.38641 | 1023 ft | 168 kts | 41° |
| 2026-04-26 18:23 | -11.53985 | -57.37801 | 935 ft | 175 kts | 44° |
| 2026-04-26 18:23 | -11.53063 | -57.37111 | 1451 ft | 151 kts | 5° |
| 2026-04-26 18:23 | -11.52265 | -57.37781 | 1709 ft | 171 kts | 292° |
| 2026-04-26 18:23 | -11.51904 | -57.38972 | 1821 ft | 179 kts | 288° |
| 2026-04-26 18:24 | -11.51553 | -57.40177 | 2161 ft | 174 kts | 288° |
| 2026-04-26 18:24 | -11.51211 | -57.41380 | 2404 ft | 175 kts | 290° |
| 2026-04-26 18:24 | -11.50758 | -57.42553 | 2508 ft | 180 kts | 298° |
| 2026-04-26 18:24 | -11.50157 | -57.43653 | 2745 ft | 174 kts | 305° |
| 2026-04-26 18:25 | -11.49415 | -57.44614 | 2971 ft | 178 kts | 314° |
| 2026-04-26 18:25 | -11.48534 | -57.45477 | 3247 ft | 172 kts | 322° |
| 2026-04-26 18:25 | -11.47663 | -57.46331 | 3427 ft | 181 kts | 304° |
| 2026-04-26 18:25 | -11.47364 | -57.47601 | 3571 ft | 190 kts | 275° |
| 2026-04-26 18:26 | -11.47310 | -57.48968 | 3735 ft | 193 kts | 273° |
| 2026-04-26 18:26 | -11.47264 | -57.50371 | 3871 ft | 195 kts | 273° |
| 2026-04-26 18:26 | -11.47209 | -57.51732 | 4020 ft | 194 kts | 274° |
| 2026-04-26 18:26 | -11.47151 | -57.53105 | 4164 ft | 194 kts | 275° |
| 2026-04-26 18:27 | -11.47091 | -57.54506 | 4309 ft | 195 kts | 274° |
| 2026-04-26 18:27 | -11.47035 | -57.55887 | 4458 ft | 197 kts | 275° |
| 2026-04-26 18:27 | -11.46973 | -57.57283 | 4613 ft | 197 kts | 274° |
| 2026-04-26 18:27 | -11.46916 | -57.58683 | 4758 ft | 199 kts | 274° |
| 2026-04-26 18:28 | -11.46857 | -57.60065 | 4898 ft | 197 kts | 274° |
| 2026-04-26 18:28 | -11.46797 | -57.61462 | 5038 ft | 197 kts | 273° |
| 2026-04-26 18:28 | -11.46739 | -57.62861 | 5178 ft | 197 kts | 273° |
| 2026-04-26 18:28 | -11.46679 | -57.64257 | 5320 ft | 197 kts | 274° |
| 2026-04-26 18:29 | -11.46620 | -57.65650 | 5461 ft | 196 kts | 274° |
| 2026-04-26 18:29 | -11.46561 | -57.67031 | 5609 ft | 195 kts | 274° |
| 2026-04-26 18:29 | -11.46503 | -57.68417 | 5751 ft | 196 kts | 274° |
| 2026-04-26 18:29 | -11.46444 | -57.69797 | 5904 ft | 195 kts | 274° |
| 2026-04-26 18:30 | -11.46383 | -57.71184 | 6049 ft | 196 kts | 274° |
| 2026-04-26 18:30 | -11.46324 | -57.72567 | 6191 ft | 194 kts | 274° |
| 2026-04-26 18:30 | -11.46265 | -57.73942 | 6337 ft | 194 kts | 274° |
| 2026-04-26 18:30 | -11.46207 | -57.75321 | 6409 ft | 199 kts | 274° |
| 2026-04-26 18:31 | -11.46145 | -57.76754 | 6411 ft | 205 kts | 274° |
| 2026-04-26 18:31 | -11.46081 | -57.78216 | 6418 ft | 208 kts | 274° |
| 2026-04-26 18:31 | -11.46018 | -57.79688 | 6415 ft | 207 kts | 274° |
| 2026-04-26 18:31 | -11.45955 | -57.81149 | 6417 ft | 207 kts | 274° |
| 2026-04-26 18:32 | -11.45891 | -57.82619 | 6420 ft | 207 kts | 274° |
| 2026-04-26 18:32 | -11.45828 | -57.84084 | 6418 ft | 206 kts | 274° |
| 2026-04-26 18:32 | -11.45765 | -57.85544 | 6419 ft | 206 kts | 274° |
| 2026-04-26 18:32 | -11.45702 | -57.87026 | 6417 ft | 207 kts | 274° |
| 2026-04-26 18:33 | -11.45637 | -57.88494 | 6417 ft | 208 kts | 274° |
| 2026-04-26 18:33 | -11.45573 | -57.89968 | 6417 ft | 208 kts | 274° |
| 2026-04-26 18:33 | -11.45509 | -57.91444 | 6413 ft | 207 kts | 274° |
| 2026-04-26 18:33 | -11.45446 | -57.92889 | 6418 ft | 207 kts | 274° |
| 2026-04-26 18:34 | -11.45382 | -57.94363 | 6422 ft | 209 kts | 275° |
| 2026-04-26 18:34 | -11.45318 | -57.95848 | 6415 ft | 209 kts | 275° |
| 2026-04-26 18:34 | -11.45253 | -57.97323 | 6421 ft | 208 kts | 274° |
| 2026-04-26 18:34 | -11.45187 | -57.98802 | 6419 ft | 209 kts | 274° |
| 2026-04-26 18:35 | -11.45124 | -58.00288 | 6415 ft | 210 kts | 275° |
| 2026-04-26 18:35 | -11.45059 | -58.01778 | 6419 ft | 211 kts | 275° |
| 2026-04-26 18:35 | -11.44993 | -58.03272 | 6329 ft | 209 kts | 274° |
| 2026-04-26 18:35 | -11.44930 | -58.04736 | 6206 ft | 204 kts | 274° |
| 2026-04-26 18:36 | -11.44867 | -58.06174 | 6079 ft | 202 kts | 275° |
| 2026-04-26 18:36 | -11.44805 | -58.07597 | 5952 ft | 200 kts | 274° |
| 2026-04-26 18:36 | -11.44742 | -58.09012 | 5827 ft | 199 kts | 274° |
| 2026-04-26 18:36 | -11.44680 | -58.10420 | 5707 ft | 199 kts | 275° |
| 2026-04-26 18:37 | -11.44617 | -58.11832 | 5584 ft | 199 kts | 275° |
| 2026-04-26 18:37 | -11.44555 | -58.13244 | 5464 ft | 199 kts | 275° |
| 2026-04-26 18:37 | -11.44491 | -58.14663 | 5347 ft | 200 kts | 274° |
| 2026-04-26 18:37 | -11.44428 | -58.16082 | 5229 ft | 201 kts | 274° |
| 2026-04-26 18:38 | -11.44366 | -58.17486 | 5110 ft | 201 kts | 275° |
| 2026-04-26 18:38 | -11.44303 | -58.18909 | 4989 ft | 200 kts | 275° |
| 2026-04-26 18:38 | -11.44259 | -58.19871 | 4914 ft | 201 kts | 275° |
| 2026-04-26 18:38 | -11.44197 | -58.21289 | 4798 ft | 201 kts | 275° |
| 2026-04-26 18:39 | -11.44134 | -58.22712 | 4674 ft | 200 kts | 275° |
| 2026-04-26 18:39 | -11.44070 | -58.24130 | 4553 ft | 201 kts | 275° |
| 2026-04-26 18:39 | -11.44006 | -58.25558 | 4432 ft | 201 kts | 275° |
| 2026-04-26 18:39 | -11.43943 | -58.26977 | 4312 ft | 199 kts | 275° |
| 2026-04-26 18:40 | -11.43881 | -58.28384 | 4183 ft | 198 kts | 275° |
| 2026-04-26 18:40 | -11.43818 | -58.29776 | 4066 ft | 196 kts | 275° |
| 2026-04-26 18:40 | -11.43755 | -58.31164 | 3941 ft | 195 kts | 274° |
| 2026-04-26 18:40 | -11.43693 | -58.32542 | 3825 ft | 195 kts | 274° |
| 2026-04-26 18:41 | -11.43633 | -58.33932 | 3701 ft | 197 kts | 274° |
| 2026-04-26 18:41 | -11.43568 | -58.35367 | 3578 ft | 199 kts | 275° |
| 2026-04-26 18:41 | -11.43515 | -58.36747 | 3468 ft | 195 kts | 271° |
| 2026-04-26 18:41 | -11.43524 | -58.38108 | 3351 ft | 190 kts | 269° |
| 2026-04-26 18:42 | -11.43599 | -58.39456 | 3221 ft | 189 kts | 265° |
| 2026-04-26 18:42 | -11.43773 | -58.40772 | 3096 ft | 186 kts | 263° |
| 2026-04-26 18:42 | -11.43976 | -58.42107 | 2981 ft | 185 kts | 262° |
| 2026-04-26 18:42 | -11.44173 | -58.43402 | 2848 ft | 185 kts | 262° |
| 2026-04-26 18:43 | -11.44367 | -58.44704 | 2735 ft | 186 kts | 262° |
| 2026-04-26 18:43 | -11.44552 | -58.46022 | 2616 ft | 186 kts | 262° |
| 2026-04-26 18:43 | -11.44734 | -58.47330 | 2497 ft | 187 kts | 263° |
| 2026-04-26 18:43 | -11.44924 | -58.48648 | 2376 ft | 187 kts | 263° |
| 2026-04-26 18:44 | -11.45122 | -58.49989 | 2252 ft | 188 kts | 263° |
| 2026-04-26 18:44 | -11.45327 | -58.51312 | 2128 ft | 185 kts | 262° |
| 2026-04-26 18:44 | -11.45529 | -58.52623 | 2025 ft | 187 kts | 262° |
| 2026-04-26 18:44 | -11.45719 | -58.53913 | 2011 ft | 181 kts | 263° |
| 2026-04-26 18:45 | -11.45910 | -58.55145 | 2004 ft | 175 kts | 262° |
| 2026-04-26 18:45 | -11.46098 | -58.56399 | 2001 ft | 174 kts | 263° |
| 2026-04-26 18:45 | -11.46281 | -58.57608 | 2004 ft | 171 kts | 262° |
| 2026-04-26 18:45 | -11.46462 | -58.58799 | 2007 ft | 170 kts | 262° |
| 2026-04-26 18:46 | -11.46636 | -58.59980 | 2012 ft | 167 kts | 263° |
| 2026-04-26 18:46 | -11.46807 | -58.61140 | 2003 ft | 164 kts | 264° |
| 2026-04-26 18:46 | -11.46981 | -58.62299 | 2018 ft | 168 kts | 263° |
| 2026-04-26 18:46 | -11.47148 | -58.63479 | 2022 ft | 166 kts | 263° |
| 2026-04-26 18:47 | -11.47317 | -58.64650 | 2015 ft | 168 kts | 263° |
| 2026-04-26 18:47 | -11.47462 | -58.65821 | 2008 ft | 165 kts | 269° |
| 2026-04-26 18:47 | -11.47488 | -58.66973 | 2008 ft | 159 kts | 271° |
| 2026-04-26 18:47 | -11.47510 | -58.68100 | 2010 ft | 154 kts | 270° |
| 2026-04-26 18:48 | -11.47505 | -58.69159 | 2065 ft | 148 kts | 277° |
| 2026-04-26 18:48 | -11.47029 | -58.69944 | 2107 ft | 126 kts | 341° |
| 2026-04-26 18:48 | -11.46161 | -58.70151 | 1857 ft | 131 kts | 353° |
| 2026-04-26 18:48 | -11.45257 | -58.70266 | 1759 ft | 125 kts | 355° |
| 2026-04-26 18:49 | -11.44495 | -58.70404 | 1554 ft | 106 kts | 349° |
| 2026-04-26 18:49 | -11.43791 | -58.70574 | 1377 ft | 100 kts | 348° |
| 2026-04-26 18:49 | -11.43098 | -58.70734 | 1172 ft | 103 kts | 349° |
| 2026-04-26 18:49 | -11.42452 | -58.70879 | 1070 ft | 78 kts | 348° |
| 2026-04-26 18:50 | -11.42021 | -58.70977 | 1070 ft | 49 kts | 346° |
| 2026-04-26 18:50 | -11.41871 | -58.71014 | 1070 ft | 16 kts | 350° |
| 2026-04-26 18:50 | -11.41812 | -58.70968 | 1069 ft | 10 kts | 77° |
| 2026-04-26 18:50 | -11.41799 | -58.70908 | 1068 ft | 10 kts | 77° |
| 2026-04-26 18:51 | -11.41832 | -58.70857 | 1068 ft | 7 kts | 86° |
| 2026-04-26 18:51 | -11.41823 | -58.70853 | 1068 ft | 0 kts | 348° |